createdAt,value
2022-09-26T00:01:18.667Z,95531.66
2022-09-26T00:03:47.780Z,95531.41
2022-09-26T00:06:18.161Z,95524.31
2022-09-26T00:08:46.722Z,95521.66
2022-09-26T00:11:16.660Z,95520.13
2022-09-26T00:13:44.281Z,95515.13
2022-09-26T00:16:13.206Z,95518.84
2022-09-26T00:18:40.721Z,95512.00
2022-09-26T00:21:13.487Z,95500.72
2022-09-26T00:23:42.226Z,95500.22
2022-09-26T00:26:10.981Z,95497.34
2022-09-26T00:28:38.360Z,95496.31
2022-09-26T00:31:07.688Z,95491.31
2022-09-26T00:33:35.181Z,95478.47
2022-09-26T00:36:03.121Z,95481.38
2022-09-26T00:38:30.544Z,95479.00
2022-09-26T00:40:58.167Z,95480.06
2022-09-26T00:43:32.748Z,95483.47
2022-09-26T00:46:28.919Z,95476.41
2022-09-26T00:49:06.059Z,95491.41
2022-09-26T00:51:36.441Z,95485.09
2022-09-26T00:54:04.940Z,95492.47
2022-09-26T00:56:35.460Z,95481.47
2022-09-26T00:59:33.241Z,95481.75
2022-09-26T01:02:02.461Z,95485.69
2022-09-26T01:04:32.950Z,95486.72
2022-09-26T01:07:04.381Z,95489.66
2022-09-26T01:09:32.502Z,95481.03
2022-09-26T01:12:02.343Z,95479.41
2022-09-26T01:14:30.601Z,95468.66
2022-09-26T01:16:57.628Z,95458.94
2022-09-26T01:19:30.402Z,95456.31
2022-09-26T01:22:15.301Z,95457.09
2022-09-26T01:25:03.520Z,95452.13
2022-09-26T01:27:49.580Z,95450.00
2022-09-26T01:30:28.003Z,95450.53
2022-09-26T01:33:36.921Z,95451.31
2022-09-26T01:36:17.020Z,95450.28
2022-09-26T01:39:02.591Z,95437.41
2022-09-26T01:41:58.940Z,95434.53
2022-09-26T01:44:28.860Z,95446.06
2022-09-26T01:47:08.462Z,95447.88
2022-09-26T01:49:59.020Z,95447.41
2022-09-26T01:52:37.387Z,95454.22
2022-09-26T01:55:12.182Z,95449.47
2022-09-26T01:57:52.161Z,95456.28
2022-09-26T02:00:20.062Z,95448.16
2022-09-26T02:02:50.856Z,95449.47
2022-09-26T02:05:27.997Z,95447.34
2022-09-26T02:08:07.241Z,95450.22
2022-09-26T02:10:40.448Z,95447.84
2022-09-26T02:13:20.596Z,95452.81
2022-09-26T02:15:53.346Z,95452.31
2022-09-26T02:18:31.004Z,95452.31
2022-09-26T02:21:02.742Z,95452.53
2022-09-26T02:23:30.381Z,95453.31
2022-09-26T02:25:58.321Z,95449.94
2022-09-26T02:28:25.461Z,95454.41
2022-09-26T02:30:54.308Z,95443.91
2022-09-26T02:33:22.623Z,95452.84
2022-09-26T02:35:55.882Z,95453.13
2022-09-26T02:38:28.001Z,95461.25
2022-09-26T02:41:35.321Z,95454.94
2022-09-26T02:44:21.921Z,95449.97
2022-09-26T02:47:22.622Z,95440.53
2022-09-26T02:50:17.902Z,95437.13
2022-09-26T02:53:14.741Z,95433.72
2022-09-26T02:56:01.729Z,95427.16
2022-09-26T02:58:47.500Z,95419.78
2022-09-26T03:01:27.724Z,95411.38
2022-09-26T03:04:41.974Z,95403.47
2022-09-26T03:07:15.057Z,95395.59
2022-09-26T03:09:43.836Z,95398.75
2022-09-26T03:12:13.529Z,95405.59
2022-09-26T03:14:43.061Z,95406.38
2022-09-26T03:17:11.003Z,95391.94
2022-09-26T03:19:45.481Z,95391.41
2022-09-26T03:22:13.380Z,95391.13
2022-09-26T03:24:44.920Z,95387.75
2022-09-26T03:27:15.100Z,95391.97
2022-09-26T03:29:42.315Z,95388.03
2022-09-26T03:32:15.340Z,95388.28
2022-09-26T03:34:42.803Z,95395.16
2022-09-26T03:37:09.820Z,95414.84
2022-09-26T03:39:38.257Z,95412.75
2022-09-26T03:42:16.902Z,95414.59
2022-09-26T03:44:46.462Z,95423.25
2022-09-26T03:47:14.840Z,95414.09
2022-09-26T03:49:48.762Z,95420.41
2022-09-26T03:52:16.022Z,95418.28
2022-09-26T03:54:44.400Z,95408.63
2022-09-26T03:57:16.220Z,95425.16
2022-09-26T03:59:51.131Z,95426.22
2022-09-26T04:02:20.129Z,95427.28
2022-09-26T04:04:53.961Z,95424.66
2022-09-26T04:07:22.389Z,95428.31
2022-09-26T04:09:49.480Z,95429.91
2022-09-26T04:12:16.910Z,95430.44
2022-09-26T04:14:44.948Z,95425.97
2022-09-26T04:17:12.999Z,95421.50
2022-09-26T04:19:43.291Z,95423.09
2022-09-26T04:22:10.421Z,95422.78
2022-09-26T04:24:38.197Z,95418.09
2022-09-26T04:27:06.599Z,95413.38
2022-09-26T04:29:33.845Z,95402.63
2022-09-26T04:32:13.645Z,95406.00
2022-09-26T04:35:00.718Z,95400.25
2022-09-26T04:37:27.838Z,95397.38
2022-09-26T04:39:54.784Z,95396.59
2022-09-26T04:42:22.099Z,95400.28
2022-09-26T04:44:49.174Z,95389.25
2022-09-26T04:47:17.239Z,95396.88
2022-09-26T04:50:07.639Z,95404.75
2022-09-26T04:52:34.866Z,95405.00
2022-09-26T04:55:01.998Z,95414.47
2022-09-26T04:57:29.116Z,95421.28
2022-09-26T04:59:56.085Z,95418.91
2022-09-26T05:02:23.306Z,95406.59
2022-09-26T05:04:51.496Z,95409.75
2022-09-26T05:07:19.703Z,95413.41
2022-09-26T05:09:48.137Z,95422.06
2022-09-26T05:12:18.416Z,95424.16
2022-09-26T05:14:49.216Z,95428.63
2022-09-26T05:17:16.664Z,95436.50
2022-09-26T05:19:46.219Z,95440.94
2022-09-26T05:22:21.680Z,95443.81
2022-09-26T05:25:07.721Z,95441.44
2022-09-26T05:27:36.538Z,95443.81
2022-09-26T05:30:03.878Z,95445.91
2022-09-26T05:32:30.938Z,95448.78
2022-09-26T05:34:58.625Z,95448.00
2022-09-26T05:37:28.637Z,95452.19
2022-09-26T05:40:14.276Z,95444.06
2022-09-26T05:42:49.439Z,95441.19
2022-09-26T05:45:16.599Z,95433.59
2022-09-26T05:47:44.418Z,95447.75
2022-09-26T05:50:11.918Z,95442.53
2022-09-26T05:52:40.065Z,95444.59
2022-09-26T05:55:12.065Z,95435.44
2022-09-26T05:58:19.184Z,95440.94
2022-09-26T06:01:16.653Z,95449.84
2022-09-26T06:03:46.477Z,95442.00
2022-09-26T06:06:22.063Z,95442.25
2022-09-26T06:08:54.746Z,95448.28
2022-09-26T06:11:50.478Z,95445.38
2022-09-26T06:14:17.545Z,95442.78
2022-09-26T06:16:46.037Z,95451.69
2022-09-26T06:19:14.128Z,95443.28
2022-09-26T06:21:44.345Z,95450.88
2022-09-26T06:24:15.418Z,95449.28
2022-09-26T06:26:43.277Z,95447.16
2022-09-26T06:29:11.079Z,95452.16
2022-09-26T06:31:41.025Z,95456.88
2022-09-26T06:34:13.201Z,95458.97
2022-09-26T06:36:59.740Z,95458.69
2022-09-26T06:39:37.241Z,95467.34
2022-09-26T06:42:07.680Z,95474.72
2022-09-26T06:44:53.618Z,95464.72
2022-09-26T06:47:23.597Z,95466.28
2022-09-26T06:50:00.378Z,95469.91
2022-09-26T06:52:35.125Z,95468.59
2022-09-26T06:55:04.296Z,95469.63
2022-09-26T06:57:40.314Z,95471.41
2022-09-26T07:00:10.100Z,95475.09
2022-09-26T07:03:09.201Z,95472.09
2022-09-26T07:05:48.599Z,95468.59
2022-09-26T07:08:17.164Z,95466.72
2022-09-26T07:10:44.477Z,95470.81
2022-09-26T07:13:22.448Z,95472.25
2022-09-26T07:15:50.803Z,95474.22
2022-09-26T07:18:45.940Z,95473.56
2022-09-26T07:21:31.518Z,95466.91
2022-09-26T07:24:05.516Z,95478.91
2022-09-26T07:26:32.559Z,95463.34
2022-09-26T07:28:59.578Z,95469.63
2022-09-26T07:31:28.741Z,95477.59
2022-09-26T07:34:08.948Z,95475.34
2022-09-26T07:36:39.955Z,95475.63
2022-09-26T07:39:08.462Z,95475.34
2022-09-26T07:41:35.456Z,95488.25
2022-09-26T07:47:09.077Z,95503.59
2022-09-26T07:49:54.644Z,95512.53
2022-09-26T07:52:51.077Z,95511.53
2022-09-26T07:55:28.317Z,95499.19
2022-09-26T07:58:15.623Z,95513.34
2022-09-26T08:00:45.458Z,95508.06
2022-09-26T08:03:29.845Z,95504.91
2022-09-26T08:06:01.216Z,95512.31
2022-09-26T08:08:29.867Z,95517.00
2022-09-26T08:11:03.672Z,95514.38
2022-09-26T08:13:44.024Z,95512.22
2022-09-26T08:16:27.430Z,95517.94
2022-09-26T08:18:59.088Z,95507.41
2022-09-26T08:21:26.416Z,95513.91
2022-09-26T08:23:56.940Z,95513.28
2022-09-26T08:26:44.892Z,95501.34
2022-09-26T08:29:17.268Z,95513.97
2022-09-26T08:31:47.931Z,95508.16
2022-09-26T08:34:15.164Z,95507.03
2022-09-26T08:36:45.257Z,95516.78
2022-09-26T08:39:12.676Z,95516.94
2022-09-26T08:42:19.365Z,95521.44
2022-09-26T08:45:48.197Z,95522.25
2022-09-26T08:48:48.719Z,95525.22
2022-09-26T08:51:31.998Z,95536.28
2022-09-26T08:54:06.201Z,95523.28
2022-09-26T08:56:42.257Z,95522.69
2022-09-26T08:59:23.858Z,95509.97
2022-09-26T09:01:55.719Z,95514.41
2022-09-26T09:04:54.035Z,95510.34
2022-09-26T09:07:25.418Z,95504.72
2022-09-26T09:09:56.937Z,95511.00
2022-09-26T09:13:05.818Z,95504.25
2022-09-26T09:16:16.257Z,95505.75
2022-09-26T09:19:33.419Z,95505.88
2022-09-26T09:22:23.781Z,95514.03
2022-09-26T09:25:17.699Z,95507.84
2022-09-26T09:28:38.461Z,95504.47
2022-09-26T09:31:11.756Z,95504.63
2022-09-26T09:34:20.537Z,95500.34
2022-09-26T09:37:19.469Z,95494.84
2022-09-26T09:40:18.844Z,95493.63
2022-09-26T09:43:05.638Z,95491.88
2022-09-26T09:45:47.316Z,95490.50
2022-09-26T09:48:15.836Z,95485.06
2022-09-26T09:50:52.904Z,95480.38
2022-09-26T09:53:45.517Z,95474.16
2022-09-26T09:56:18.976Z,95466.16
2022-09-26T09:59:09.044Z,95469.78
2022-09-26T10:02:17.077Z,95473.13
2022-09-26T10:04:51.041Z,95474.69
2022-09-26T10:07:18.517Z,95474.38
2022-09-26T10:10:03.796Z,95470.66
2022-09-26T10:13:01.140Z,95468.84
2022-09-26T10:15:59.276Z,95469.94
2022-09-26T10:19:08.838Z,95471.63
2022-09-26T10:21:39.657Z,95472.50
2022-09-26T10:24:22.402Z,95470.25
2022-09-26T10:26:54.717Z,95465.97
2022-09-26T10:29:37.007Z,95470.25
2022-09-26T10:32:05.558Z,95462.97
2022-09-26T10:34:35.978Z,95463.19
2022-09-26T10:37:25.436Z,95466.50
2022-09-26T10:40:42.314Z,95461.97
2022-09-26T10:43:22.658Z,95455.75
2022-09-26T10:46:02.434Z,95459.38
2022-09-26T10:48:49.286Z,95458.56
2022-09-26T10:51:45.797Z,95460.06
2022-09-26T10:54:25.177Z,95457.06
2022-09-26T10:56:59.411Z,95457.75
2022-09-26T10:59:36.437Z,95457.47
2022-09-26T11:13:39.197Z,95456.47
2022-09-26T11:16:15.338Z,95450.69
2022-09-26T11:18:51.538Z,95454.31
2022-09-26T11:21:47.359Z,95450.66
2022-09-26T11:24:22.962Z,95438.94
2022-09-26T11:27:22.059Z,95431.91
2022-09-26T11:30:00.185Z,95430.72
2022-09-26T11:32:32.418Z,95425.59
2022-09-26T11:35:54.903Z,95428.03
2022-09-26T11:38:47.868Z,95421.50
2022-09-26T11:41:49.876Z,95416.50
2022-09-26T11:44:35.980Z,95411.50
2022-09-26T11:47:38.757Z,95406.97
2022-09-26T11:50:40.207Z,95410.66
2022-09-26T11:53:50.336Z,95404.50
2022-09-26T11:56:49.140Z,95404.31
2022-09-26T11:59:47.657Z,95401.06
2022-09-26T12:02:40.111Z,95389.53
2022-09-26T12:05:29.777Z,95375.94
2022-09-26T12:08:32.107Z,95375.72
2022-09-26T12:11:02.078Z,95374.78
2022-09-26T12:13:38.297Z,95383.69
2022-09-26T12:16:22.349Z,95385.22
2022-09-26T12:18:54.799Z,95388.72
2022-09-26T12:21:26.234Z,95388.78
2022-09-26T12:23:57.558Z,95380.41
2022-09-26T12:26:52.278Z,95380.94
2022-09-26T12:29:31.777Z,95376.53
2022-09-26T12:32:07.841Z,95367.34
2022-09-26T12:34:37.938Z,95372.81
2022-09-26T12:37:23.556Z,95366.44
2022-09-26T12:40:32.473Z,95362.84
2022-09-26T12:43:46.587Z,95366.16
2022-09-26T12:46:44.287Z,95361.34
2022-09-26T12:49:31.077Z,95359.66
2022-09-26T12:52:36.721Z,95354.66
2022-09-26T12:55:14.443Z,95356.88
2022-09-26T12:57:44.138Z,95344.63
2022-09-26T13:00:18.961Z,95343.78
2022-09-26T13:03:11.919Z,95344.50
2022-09-26T13:05:42.386Z,95338.22
2022-09-26T13:08:41.817Z,95339.63
2022-09-26T13:11:40.020Z,95327.59
2022-09-26T13:14:27.585Z,95335.56
2022-09-26T13:17:15.997Z,95332.44
2022-09-26T13:19:51.707Z,95330.16
2022-09-26T13:22:27.882Z,95325.91
2022-09-26T13:25:21.968Z,95311.44
2022-09-26T13:27:58.218Z,95315.03
2022-09-26T13:30:35.403Z,95321.41
2022-09-26T13:33:11.659Z,95316.97
2022-09-26T13:35:43.681Z,95310.88
2022-09-26T13:38:39.458Z,95309.13
2022-09-26T13:41:28.538Z,95305.72
2022-09-26T13:44:23.220Z,95302.16
2022-09-26T13:47:12.680Z,95299.06
2022-09-26T13:49:51.109Z,95300.19
2022-09-26T13:52:22.838Z,95298.81
2022-09-26T13:55:02.201Z,95296.81
2022-09-26T13:57:35.959Z,95302.25
2022-09-26T14:00:30.139Z,95306.84
2022-09-26T14:03:18.721Z,95304.97
2022-09-26T14:05:50.157Z,95296.56
2022-09-26T14:08:52.437Z,95295.94
2022-09-26T14:11:19.498Z,95288.13
2022-09-26T14:13:48.218Z,95284.84
2022-09-26T14:16:27.475Z,95281.34
2022-09-26T14:19:11.839Z,95285.41
2022-09-26T14:21:38.939Z,95282.09
2022-09-26T14:24:20.977Z,95280.97
2022-09-26T14:27:04.900Z,95273.66
2022-09-26T14:29:49.579Z,95267.84
2022-09-26T14:32:20.260Z,95266.91
2022-09-26T14:34:48.903Z,95270.66
2022-09-26T14:37:27.451Z,95267.41
2022-09-26T14:40:14.727Z,95273.75
2022-09-26T14:42:44.900Z,95269.97
2022-09-26T14:45:23.458Z,95275.22
2022-09-26T14:48:05.018Z,95265.81
2022-09-26T14:50:36.920Z,95271.84
2022-09-26T14:53:27.220Z,95266.25
2022-09-26T14:56:02.057Z,95260.91
2022-09-26T14:58:38.222Z,95262.75
2022-09-26T15:01:27.678Z,95255.63
2022-09-26T15:04:21.222Z,95254.31
2022-09-26T15:06:53.041Z,95254.44
2022-09-26T15:09:40.393Z,95252.19
2022-09-26T15:12:40.001Z,95256.03
2022-09-26T15:15:31.100Z,95257.44
2022-09-26T15:18:27.560Z,95264.09
2022-09-26T15:21:06.847Z,95273.41
2022-09-26T15:23:44.663Z,95270.75
2022-09-26T15:26:12.098Z,95269.50
2022-09-26T15:28:39.319Z,95271.25
2022-09-26T15:31:28.381Z,95281.16
2022-09-26T15:34:04.616Z,95268.72
2022-09-26T15:36:36.938Z,95272.28
2022-09-26T15:39:26.837Z,95265.75
2022-09-26T15:42:12.759Z,95263.91
2022-09-26T15:44:54.217Z,95266.03
2022-09-26T15:47:41.837Z,95260.97
2022-09-26T15:50:10.958Z,95273.41
2022-09-26T15:52:44.578Z,95270.78
2022-09-26T15:55:34.458Z,95274.69
2022-09-26T15:58:05.478Z,95282.88
2022-09-26T16:00:36.319Z,95288.53
2022-09-26T16:03:40.659Z,95266.63
2022-09-26T16:06:25.420Z,95250.53
2022-09-26T16:09:17.280Z,95249.06
2022-09-26T16:11:48.626Z,95234.41
2022-09-26T16:14:30.923Z,95242.88
2022-09-26T16:17:11.978Z,95238.38
2022-09-26T16:19:51.300Z,95236.53
2022-09-26T16:22:23.197Z,95233.41
2022-09-26T16:24:51.797Z,95236.81
2022-09-26T16:27:34.731Z,95239.78
2022-09-26T16:30:05.204Z,95238.97
2022-09-26T16:32:32.739Z,95248.16
2022-09-26T16:35:19.842Z,95241.13
2022-09-26T16:38:01.780Z,95246.56
2022-09-26T16:40:31.636Z,95252.63
2022-09-26T16:43:15.258Z,95258.22
2022-09-26T16:45:56.565Z,95253.78
2022-09-26T16:48:43.497Z,95249.66
2022-09-26T16:51:22.340Z,95248.97
2022-09-26T16:54:16.639Z,95247.97
2022-09-26T16:56:44.841Z,95248.59
2022-09-26T16:59:17.999Z,95245.28
2022-09-26T17:01:55.050Z,95236.88
2022-09-26T17:04:36.419Z,95239.22
2022-09-26T17:07:10.578Z,95237.16
2022-09-26T17:09:37.877Z,95259.31
2022-09-26T17:12:16.917Z,95265.34
2022-09-26T17:14:48.346Z,95266.94
2022-09-26T17:17:22.055Z,95259.50
2022-09-26T17:19:56.820Z,95262.63
2022-09-26T17:22:26.852Z,95260.88
2022-09-26T17:24:54.500Z,95251.41
2022-09-26T17:27:30.837Z,95257.97
2022-09-26T17:30:02.959Z,95247.72
2022-09-26T17:32:34.100Z,95257.56
2022-09-26T17:35:04.174Z,95255.19
2022-09-26T17:37:31.565Z,95256.28
2022-09-26T17:39:58.840Z,95256.34
2022-09-26T17:42:26.623Z,95252.91
2022-09-26T17:44:54.158Z,95241.91
2022-09-26T17:47:21.220Z,95237.72
2022-09-26T17:49:54.954Z,95244.59
2022-09-26T17:52:25.210Z,95242.53
2022-09-26T17:54:59.938Z,95244.94
2022-09-26T17:57:30.406Z,95242.38
2022-09-26T17:59:58.102Z,95239.53
2022-09-26T18:02:35.740Z,95241.94
2022-09-26T18:05:08.681Z,95241.94
2022-09-26T18:07:40.258Z,95236.19
2022-09-26T18:10:19.539Z,95236.44
2022-09-26T18:12:58.116Z,95236.75
2022-09-26T18:15:27.002Z,95228.56
2022-09-26T18:17:54.436Z,95225.13
2022-09-26T18:20:27.599Z,95227.78
2022-09-26T18:22:54.972Z,95226.22
2022-09-26T18:25:25.537Z,95228.84
2022-09-26T18:27:56.698Z,95235.97
2022-09-26T18:30:24.364Z,95235.66
2022-09-26T18:32:55.338Z,95244.84
2022-09-26T18:35:25.387Z,95234.06
2022-09-26T18:37:55.606Z,95233.25
2022-09-26T18:40:28.061Z,95227.78
2022-09-26T18:42:58.085Z,95230.72
2022-09-26T18:45:34.857Z,95233.34
2022-09-26T18:48:12.800Z,95232.56
2022-09-26T18:50:40.438Z,95222.31
2022-09-26T18:53:14.362Z,95229.41
2022-09-26T18:56:00.101Z,95223.88
2022-09-26T18:58:28.300Z,95219.41
2022-09-26T19:01:08.212Z,95218.88
2022-09-26T19:03:38.194Z,95211.78
2022-09-26T19:06:25.438Z,95217.03
2022-09-26T19:09:02.239Z,95226.78
2022-09-26T19:11:35.401Z,95226.28
2022-09-26T19:14:17.705Z,95232.31
2022-09-26T19:16:47.084Z,95234.69
2022-09-26T19:19:15.099Z,95233.88
2022-09-26T19:21:43.777Z,95233.97
2022-09-26T19:24:23.477Z,95232.94
2022-09-26T19:26:55.319Z,95240.34
2022-09-26T19:29:37.101Z,95233.22
2022-09-26T19:32:07.483Z,95240.84
2022-09-26T19:34:35.117Z,95244.03
2022-09-26T19:37:03.339Z,95249.31
2022-09-26T19:39:32.041Z,95239.00
2022-09-26T19:41:59.290Z,95237.41
2022-09-26T19:44:29.420Z,95244.25
2022-09-26T19:46:59.960Z,95233.22
2022-09-26T19:49:29.217Z,95241.13
2022-09-26T19:51:56.890Z,95236.09
2022-09-26T19:54:24.260Z,95240.28
2022-09-26T19:56:51.477Z,95244.50
2022-09-26T19:59:21.354Z,95243.69
2022-09-26T20:01:52.013Z,95234.75
2022-09-26T20:04:19.757Z,95235.53
2022-09-26T20:06:47.625Z,95227.34
2022-09-26T20:09:19.556Z,95219.75
2022-09-26T20:11:46.816Z,95214.19
2022-09-26T20:14:26.335Z,95215.25
2022-09-26T20:17:08.998Z,95217.88
2022-09-26T20:19:38.916Z,95216.81
2022-09-26T20:22:15.642Z,95214.19
2022-09-26T20:24:43.978Z,95209.69
2022-09-26T20:27:16.498Z,95210.47
2022-09-26T20:30:02.419Z,95203.66
2022-09-26T20:32:30.358Z,95203.66
2022-09-26T20:35:00.618Z,95201.53
2022-09-26T20:37:35.457Z,95200.75
2022-09-26T20:40:12.967Z,95192.56
2022-09-26T20:42:41.819Z,95204.94
2022-09-26T20:45:16.764Z,95198.09
2022-09-26T20:47:45.457Z,95192.84
2022-09-26T20:50:18.746Z,95191.28
2022-09-26T20:52:46.056Z,95184.69
2022-09-26T20:55:20.217Z,95176.78
2022-09-26T20:57:48.296Z,95167.31
2022-09-26T21:00:18.076Z,95166.25
2022-09-26T21:02:51.615Z,95167.31
2022-09-26T21:05:23.037Z,95153.38
2022-09-26T21:07:52.036Z,95156.78
2022-09-26T21:10:34.362Z,95161.78
2022-09-26T21:13:01.638Z,95159.69
2022-09-26T21:15:32.460Z,95160.28
2022-09-26T21:18:01.060Z,95162.41
2022-09-26T21:20:34.916Z,95156.91
2022-09-26T21:23:19.436Z,95158.28
2022-09-26T21:25:47.290Z,95142.78
2022-09-26T21:28:14.226Z,95143.84
2022-09-26T21:30:42.478Z,95141.19
2022-09-26T21:33:11.345Z,95135.66
2022-09-26T21:35:38.437Z,95123.56
2022-09-26T21:38:05.838Z,95124.63
2022-09-26T21:40:38.549Z,95131.75
2022-09-26T21:43:27.458Z,95121.22
2022-09-26T21:45:54.591Z,95115.97
2022-09-26T21:48:21.797Z,95109.91
2022-09-26T21:50:57.692Z,95113.91
2022-09-26T21:53:51.457Z,95110.69
2022-09-26T21:56:24.537Z,95109.91
2022-09-26T21:58:52.878Z,95107.59
2022-09-26T22:01:20.607Z,95104.97
2022-09-26T22:03:47.701Z,95107.09
2022-09-26T22:06:14.900Z,95096.06
2022-09-26T22:08:43.559Z,95088.75
2022-09-26T22:11:10.599Z,95084.47
2022-09-26T22:13:38.536Z,95087.09
2022-09-26T22:16:07.201Z,95077.09
2022-09-26T22:18:35.848Z,95080.50
2022-09-26T22:21:04.634Z,95078.34
2022-09-26T22:23:35.219Z,95065.19
2022-09-26T22:26:02.896Z,95066.75
2022-09-26T22:28:29.997Z,95068.13
2022-09-26T22:31:02.087Z,95065.97
2022-09-26T22:33:29.570Z,95068.59
2022-09-26T22:35:56.678Z,95060.72
2022-09-26T22:38:23.939Z,95054.97
2022-09-26T22:41:03.333Z,95050.78
2022-09-26T22:43:31.880Z,95047.63
2022-09-26T22:46:07.060Z,95049.72
2022-09-26T22:48:39.338Z,95038.97
2022-09-26T22:51:07.076Z,95033.69
2022-09-26T22:53:36.058Z,95031.06
2022-09-26T22:56:06.608Z,95026.59
2022-09-26T22:58:38.436Z,95018.69
2022-09-26T23:01:08.884Z,95008.19
2022-09-26T23:03:36.619Z,95021.84
2022-09-26T23:06:04.877Z,95006.06
2022-09-26T23:08:35.477Z,95008.97
2022-09-26T23:11:03.980Z,95002.91
2022-09-26T23:13:31.879Z,94999.31
2022-09-26T23:16:06.582Z,95009.31
2022-09-26T23:18:35.120Z,95006.19
2022-09-26T23:21:09.193Z,95002.50
2022-09-26T23:23:36.521Z,95000.38
2022-09-26T23:26:04.640Z,95014.59
2022-09-26T23:28:33.113Z,95012.00
2022-09-26T23:31:11.315Z,94990.41
2022-09-26T23:33:39.280Z,94994.34
2022-09-26T23:36:07.369Z,94985.66
2022-09-26T23:38:35.734Z,94990.31
2022-09-26T23:41:02.797Z,94986.91
2022-09-26T23:43:29.930Z,94983.53
2022-09-26T23:45:57.406Z,94978.03
2022-09-26T23:48:24.561Z,94978.84
2022-09-26T23:50:51.662Z,94975.41
2022-09-26T23:53:18.822Z,94970.72
2022-09-26T23:55:45.880Z,94968.41
2022-09-26T23:58:13.068Z,94967.63
